sensor_id;sensor_type;location;lat;lon;timestamp;temperature;humidity
15364;DHT22;7781;49.690;6.472;2024-02-16T00:00:32;9.80;99.90
15364;DHT22;7781;49.690;6.472;2024-02-16T00:03:03;9.80;99.90
15364;DHT22;7781;49.690;6.472;2024-02-16T00:05:32;9.80;99.90
15364;DHT22;7781;49.690;6.472;2024-02-16T00:08:00;9.80;99.90
15364;DHT22;7781;49.690;6.472;2024-02-16T00:10:29;9.80;99.90
15364;DHT22;7781;49.690;6.472;2024-02-16T00:12:59;9.90;99.90
15364;DHT22;7781;49.690;6.472;2024-02-16T00:15:28;9.90;99.90
15364;DHT22;7781;49.690;6.472;2024-02-16T00:17:56;9.90;99.90
15364;DHT22;7781;49.690;6.472;2024-02-16T00:20:27;9.90;99.90
15364;DHT22;7781;49.690;6.472;2024-02-16T00:22:57;10.00;99.90
15364;DHT22;7781;49.690;6.472;2024-02-16T00:25:26;10.10;99.90
15364;DHT22;7781;49.690;6.472;2024-02-16T00:27:55;10.00;99.90
15364;DHT22;7781;49.690;6.472;2024-02-16T00:30:24;10.00;99.90
15364;DHT22;7781;49.690;6.472;2024-02-16T00:32:54;9.90;99.90
15364;DHT22;7781;49.690;6.472;2024-02-16T00:35:23;9.90;99.90
15364;DHT22;7781;49.690;6.472;2024-02-16T00:37:53;9.90;99.90
15364;DHT22;7781;49.690;6.472;2024-02-16T00:40:22;9.90;99.90
15364;DHT22;7781;49.690;6.472;2024-02-16T00:42:52;9.80;99.90
15364;DHT22;7781;49.690;6.472;2024-02-16T00:45:21;9.80;99.90
15364;DHT22;7781;49.690;6.472;2024-02-16T00:47:51;9.80;99.90
15364;DHT22;7781;49.690;6.472;2024-02-16T00:50:20;9.80;99.90
15364;DHT22;7781;49.690;6.472;2024-02-16T00:52:50;9.80;99.90
15364;DHT22;7781;49.690;6.472;2024-02-16T00:55:20;9.80;99.90
15364;DHT22;7781;49.690;6.472;2024-02-16T00:57:48;9.80;99.90
15364;DHT22;7781;49.690;6.472;2024-02-16T01:00:17;9.80;99.90
15364;DHT22;7781;49.690;6.472;2024-02-16T01:02:46;9.80;99.90
15364;DHT22;7781;49.690;6.472;2024-02-16T01:05:16;9.80;99.90
15364;DHT22;7781;49.690;6.472;2024-02-16T01:07:45;9.70;99.90
15364;DHT22;7781;49.690;6.472;2024-02-16T01:10:16;9.80;99.90
15364;DHT22;7781;49.690;6.472;2024-02-16T01:12:48;9.70;99.90
15364;DHT22;7781;49.690;6.472;2024-02-16T01:15:20;9.70;99.90
15364;DHT22;7781;49.690;6.472;2024-02-16T01:17:48;9.70;99.90
15364;DHT22;7781;49.690;6.472;2024-02-16T01:20:17;9.70;99.90
15364;DHT22;7781;49.690;6.472;2024-02-16T01:22:47;9.70;99.90
15364;DHT22;7781;49.690;6.472;2024-02-16T01:25:16;9.70;99.90
15364;DHT22;7781;49.690;6.472;2024-02-16T01:27:44;9.70;99.90
15364;DHT22;7781;49.690;6.472;2024-02-16T01:30:17;9.60;99.90
15364;DHT22;7781;49.690;6.472;2024-02-16T01:32:47;9.60;99.90
15364;DHT22;7781;49.690;6.472;2024-02-16T01:35:15;9.60;99.90
15364;DHT22;7781;49.690;6.472;2024-02-16T01:37:44;9.60;99.90
15364;DHT22;7781;49.690;6.472;2024-02-16T01:40:12;9.60;99.90
15364;DHT22;7781;49.690;6.472;2024-02-16T01:42:44;9.60;99.90
15364;DHT22;7781;49.690;6.472;2024-02-16T01:45:12;9.60;99.90
15364;DHT22;7781;49.690;6.472;2024-02-16T01:47:44;9.60;99.90
15364;DHT22;7781;49.690;6.472;2024-02-16T01:50:15;9.70;99.90
15364;DHT22;7781;49.690;6.472;2024-02-16T01:52:45;9.70;99.90
15364;DHT22;7781;49.690;6.472;2024-02-16T01:55:15;9.70;99.90
15364;DHT22;7781;49.690;6.472;2024-02-16T01:57:45;9.70;99.90
15364;DHT22;7781;49.690;6.472;2024-02-16T02:00:15;9.60;99.90
15364;DHT22;7781;49.690;6.472;2024-02-16T02:02:47;9.70;99.90
15364;DHT22;7781;49.690;6.472;2024-02-16T02:05:16;9.70;99.90
15364;DHT22;7781;49.690;6.472;2024-02-16T02:07:45;9.70;99.90
15364;DHT22;7781;49.690;6.472;2024-02-16T02:10:13;9.70;99.90
15364;DHT22;7781;49.690;6.472;2024-02-16T02:12:42;9.60;99.90
15364;DHT22;7781;49.690;6.472;2024-02-16T02:15:11;9.60;99.90
15364;DHT22;7781;49.690;6.472;2024-02-16T02:17:40;9.60;99.90
15364;DHT22;7781;49.690;6.472;2024-02-16T02:20:11;9.50;99.90
15364;DHT22;7781;49.690;6.472;2024-02-16T02:22:42;9.50;99.90
15364;DHT22;7781;49.690;6.472;2024-02-16T02:25:10;9.50;99.90
15364;DHT22;7781;49.690;6.472;2024-02-16T02:27:39;9.50;99.90
15364;DHT22;7781;49.690;6.472;2024-02-16T02:30:08;9.50;99.90
15364;DHT22;7781;49.690;6.472;2024-02-16T02:32:37;9.50;99.90
15364;DHT22;7781;49.690;6.472;2024-02-16T02:35:07;9.50;99.90
15364;DHT22;7781;49.690;6.472;2024-02-16T02:37:36;9.50;99.90
15364;DHT22;7781;49.690;6.472;2024-02-16T02:40:10;9.40;99.90
15364;DHT22;7781;49.690;6.472;2024-02-16T02:42:39;9.40;99.90
15364;DHT22;7781;49.690;6.472;2024-02-16T02:45:08;9.40;99.90
15364;DHT22;7781;49.690;6.472;2024-02-16T02:47:37;9.40;99.90
15364;DHT22;7781;49.690;6.472;2024-02-16T02:50:07;9.30;99.90
15364;DHT22;7781;49.690;6.472;2024-02-16T02:52:35;9.30;99.90
15364;DHT22;7781;49.690;6.472;2024-02-16T02:55:05;9.30;99.90
15364;DHT22;7781;49.690;6.472;2024-02-16T02:57:35;9.30;99.90
15364;DHT22;7781;49.690;6.472;2024-02-16T03:00:05;9.30;99.90
15364;DHT22;7781;49.690;6.472;2024-02-16T03:02:38;9.20;99.90
15364;DHT22;7781;49.690;6.472;2024-02-16T03:05:07;9.20;99.90
15364;DHT22;7781;49.690;6.472;2024-02-16T03:07:36;9.10;99.90
15364;DHT22;7781;49.690;6.472;2024-02-16T03:10:06;9.10;99.90
15364;DHT22;7781;49.690;6.472;2024-02-16T03:12:39;9.10;99.90
15364;DHT22;7781;49.690;6.472;2024-02-16T03:15:08;9.00;99.90
15364;DHT22;7781;49.690;6.472;2024-02-16T03:17:37;9.00;99.90
15364;DHT22;7781;49.690;6.472;2024-02-16T03:20:06;8.90;99.90
15364;DHT22;7781;49.690;6.472;2024-02-16T03:22:36;8.90;99.90
15364;DHT22;7781;49.690;6.472;2024-02-16T03:25:05;8.80;99.90
15364;DHT22;7781;49.690;6.472;2024-02-16T03:27:33;8.80;99.90
15364;DHT22;7781;49.690;6.472;2024-02-16T03:30:06;8.70;99.90
15364;DHT22;7781;49.690;6.472;2024-02-16T03:32:35;8.70;99.90
15364;DHT22;7781;49.690;6.472;2024-02-16T03:35:05;8.70;99.90
15364;DHT22;7781;49.690;6.472;2024-02-16T03:37:34;8.70;99.90
15364;DHT22;7781;49.690;6.472;2024-02-16T03:40:06;8.70;99.90
15364;DHT22;7781;49.690;6.472;2024-02-16T03:42:36;8.70;99.90
15364;DHT22;7781;49.690;6.472;2024-02-16T03:45:08;8.60;99.90
15364;DHT22;7781;49.690;6.472;2024-02-16T03:47:36;8.50;99.90
15364;DHT22;7781;49.690;6.472;2024-02-16T03:50:09;8.50;99.90
15364;DHT22;7781;49.690;6.472;2024-02-16T03:52:40;8.40;99.90
15364;DHT22;7781;49.690;6.472;2024-02-16T03:55:08;8.40;99.90
15364;DHT22;7781;49.690;6.472;2024-02-16T03:57:37;8.40;99.90
15364;DHT22;7781;49.690;6.472;2024-02-16T04:00:09;8.30;99.90
15364;DHT22;7781;49.690;6.472;2024-02-16T04:02:41;8.30;99.90
15364;DHT22;7781;49.690;6.472;2024-02-16T04:05:10;8.30;99.90
15364;DHT22;7781;49.690;6.472;2024-02-16T04:07:39;8.30;99.90
15364;DHT22;7781;49.690;6.472;2024-02-16T04:10:08;8.20;99.90
15364;DHT22;7781;49.690;6.472;2024-02-16T04:12:37;8.20;99.90
15364;DHT22;7781;49.690;6.472;2024-02-16T04:15:08;8.20;99.90
15364;DHT22;7781;49.690;6.472;2024-02-16T04:17:37;8.20;99.90
15364;DHT22;7781;49.690;6.472;2024-02-16T04:20:07;8.20;99.90
15364;DHT22;7781;49.690;6.472;2024-02-16T04:22:36;8.30;99.90
15364;DHT22;7781;49.690;6.472;2024-02-16T04:25:06;8.30;99.90
15364;DHT22;7781;49.690;6.472;2024-02-16T04:27:36;8.10;99.90
15364;DHT22;7781;49.690;6.472;2024-02-16T04:30:08;8.00;99.90
15364;DHT22;7781;49.690;6.472;2024-02-16T04:32:37;8.00;99.90
15364;DHT22;7781;49.690;6.472;2024-02-16T04:35:06;7.90;99.90
15364;DHT22;7781;49.690;6.472;2024-02-16T04:37:41;7.90;99.90
15364;DHT22;7781;49.690;6.472;2024-02-16T04:40:10;7.90;99.90
15364;DHT22;7781;49.690;6.472;2024-02-16T04:42:39;7.80;99.90
15364;DHT22;7781;49.690;6.472;2024-02-16T04:45:13;7.70;99.90
15364;DHT22;7781;49.690;6.472;2024-02-16T04:47:44;7.80;99.90
15364;DHT22;7781;49.690;6.472;2024-02-16T04:50:13;7.80;99.90
15364;DHT22;7781;49.690;6.472;2024-02-16T04:52:41;7.80;99.90
15364;DHT22;7781;49.690;6.472;2024-02-16T04:55:11;7.80;99.90
15364;DHT22;7781;49.690;6.472;2024-02-16T04:57:40;7.80;99.90
15364;DHT22;7781;49.690;6.472;2024-02-16T05:00:14;7.90;99.90
15364;DHT22;7781;49.690;6.472;2024-02-16T05:02:42;7.90;99.90
15364;DHT22;7781;49.690;6.472;2024-02-16T05:05:12;7.90;99.90
15364;DHT22;7781;49.690;6.472;2024-02-16T05:07:40;7.90;99.90
15364;DHT22;7781;49.690;6.472;2024-02-16T05:10:09;7.90;99.90
15364;DHT22;7781;49.690;6.472;2024-02-16T05:12:37;7.90;99.90
15364;DHT22;7781;49.690;6.472;2024-02-16T05:15:06;7.90;99.90
15364;DHT22;7781;49.690;6.472;2024-02-16T05:17:38;8.00;99.90
15364;DHT22;7781;49.690;6.472;2024-02-16T05:20:09;8.00;99.90
15364;DHT22;7781;49.690;6.472;2024-02-16T05:22:43;8.00;99.90
15364;DHT22;7781;49.690;6.472;2024-02-16T05:25:13;8.00;99.90
15364;DHT22;7781;49.690;6.472;2024-02-16T05:27:42;8.00;99.90
15364;DHT22;7781;49.690;6.472;2024-02-16T05:30:11;7.90;99.90
15364;DHT22;7781;49.690;6.472;2024-02-16T05:32:45;7.90;99.90
15364;DHT22;7781;49.690;6.472;2024-02-16T05:35:15;7.80;99.90
15364;DHT22;7781;49.690;6.472;2024-02-16T05:37:45;7.80;99.90
15364;DHT22;7781;49.690;6.472;2024-02-16T05:40:16;7.80;99.90
15364;DHT22;7781;49.690;6.472;2024-02-16T05:42:51;7.70;99.90
15364;DHT22;7781;49.690;6.472;2024-02-16T05:45:25;7.70;99.90
15364;DHT22;7781;49.690;6.472;2024-02-16T05:47:56;7.70;99.90
15364;DHT22;7781;49.690;6.472;2024-02-16T05:50:26;7.70;99.90
15364;DHT22;7781;49.690;6.472;2024-02-16T05:52:54;7.70;99.90
15364;DHT22;7781;49.690;6.472;2024-02-16T05:55:23;7.80;99.90
15364;DHT22;7781;49.690;6.472;2024-02-16T05:57:52;7.70;99.90
15364;DHT22;7781;49.690;6.472;2024-02-16T06:00:21;7.70;99.90
15364;DHT22;7781;49.690;6.472;2024-02-16T06:02:56;7.70;99.90
15364;DHT22;7781;49.690;6.472;2024-02-16T06:05:25;7.70;99.90
15364;DHT22;7781;49.690;6.472;2024-02-16T06:07:54;7.60;99.90
15364;DHT22;7781;49.690;6.472;2024-02-16T06:10:26;7.60;99.90
15364;DHT22;7781;49.690;6.472;2024-02-16T06:12:54;7.60;99.90
15364;DHT22;7781;49.690;6.472;2024-02-16T06:15:23;7.60;99.90
15364;DHT22;7781;49.690;6.472;2024-02-16T06:17:52;7.60;99.90
15364;DHT22;7781;49.690;6.472;2024-02-16T06:20:23;7.60;99.90
15364;DHT22;7781;49.690;6.472;2024-02-16T06:22:51;7.70;99.90
15364;DHT22;7781;49.690;6.472;2024-02-16T06:25:19;7.70;99.90
15364;DHT22;7781;49.690;6.472;2024-02-16T06:27:48;7.70;99.90
15364;DHT22;7781;49.690;6.472;2024-02-16T06:30:17;7.70;99.90
15364;DHT22;7781;49.690;6.472;2024-02-16T06:32:46;7.80;99.90
15364;DHT22;7781;49.690;6.472;2024-02-16T06:35:14;7.80;99.90
15364;DHT22;7781;49.690;6.472;2024-02-16T06:37:44;7.80;99.90
15364;DHT22;7781;49.690;6.472;2024-02-16T06:40:13;7.80;99.90
15364;DHT22;7781;49.690;6.472;2024-02-16T06:42:42;7.90;99.90
15364;DHT22;7781;49.690;6.472;2024-02-16T06:45:10;7.90;99.90
15364;DHT22;7781;49.690;6.472;2024-02-16T06:47:39;7.90;99.90
15364;DHT22;7781;49.690;6.472;2024-02-16T06:50:08;7.90;99.90
15364;DHT22;7781;49.690;6.472;2024-02-16T06:52:37;7.90;99.90
15364;DHT22;7781;49.690;6.472;2024-02-16T06:55:09;8.00;99.90
15364;DHT22;7781;49.690;6.472;2024-02-16T06:57:38;8.00;99.90
15364;DHT22;7781;49.690;6.472;2024-02-16T07:00:09;8.00;99.90
15364;DHT22;7781;49.690;6.472;2024-02-16T07:02:38;8.10;99.90
15364;DHT22;7781;49.690;6.472;2024-02-16T07:05:08;8.10;99.90
15364;DHT22;7781;49.690;6.472;2024-02-16T07:07:37;8.10;99.90
15364;DHT22;7781;49.690;6.472;2024-02-16T07:10:09;8.10;99.90
15364;DHT22;7781;49.690;6.472;2024-02-16T07:12:40;8.20;99.90
15364;DHT22;7781;49.690;6.472;2024-02-16T07:15:09;8.20;99.90
15364;DHT22;7781;49.690;6.472;2024-02-16T07:17:37;8.20;99.90
15364;DHT22;7781;49.690;6.472;2024-02-16T07:20:06;8.30;99.90
15364;DHT22;7781;49.690;6.472;2024-02-16T07:22:35;8.30;99.90
15364;DHT22;7781;49.690;6.472;2024-02-16T07:25:06;8.30;99.90
15364;DHT22;7781;49.690;6.472;2024-02-16T07:27:37;8.30;99.90
15364;DHT22;7781;49.690;6.472;2024-02-16T07:30:06;8.40;99.90
15364;DHT22;7781;49.690;6.472;2024-02-16T07:32:38;8.40;99.90
15364;DHT22;7781;49.690;6.472;2024-02-16T07:35:07;8.50;99.90
15364;DHT22;7781;49.690;6.472;2024-02-16T07:37:37;8.50;99.90
15364;DHT22;7781;49.690;6.472;2024-02-16T07:40:08;8.60;99.90
15364;DHT22;7781;49.690;6.472;2024-02-16T07:42:39;8.60;99.90
15364;DHT22;7781;49.690;6.472;2024-02-16T07:45:11;8.70;99.90
15364;DHT22;7781;49.690;6.472;2024-02-16T07:47:40;8.70;99.90
15364;DHT22;7781;49.690;6.472;2024-02-16T07:50:11;8.80;99.90
15364;DHT22;7781;49.690;6.472;2024-02-16T07:52:40;8.80;99.90
15364;DHT22;7781;49.690;6.472;2024-02-16T07:55:11;8.90;99.90
15364;DHT22;7781;49.690;6.472;2024-02-16T07:57:42;9.00;99.90
15364;DHT22;7781;49.690;6.472;2024-02-16T08:00:11;9.00;99.90
15364;DHT22;7781;49.690;6.472;2024-02-16T08:02:40;9.10;99.90
15364;DHT22;7781;49.690;6.472;2024-02-16T08:05:10;9.10;99.90
15364;DHT22;7781;49.690;6.472;2024-02-16T08:07:41;9.20;99.90
15364;DHT22;7781;49.690;6.472;2024-02-16T08:10:11;9.20;99.90
15364;DHT22;7781;49.690;6.472;2024-02-16T08:12:40;9.20;99.90
15364;DHT22;7781;49.690;6.472;2024-02-16T08:15:13;9.30;99.90
15364;DHT22;7781;49.690;6.472;2024-02-16T08:17:42;9.30;99.90
15364;DHT22;7781;49.690;6.472;2024-02-16T08:20:36;9.40;99.90
15364;DHT22;7781;49.690;6.472;2024-02-16T08:23:06;9.40;99.90
15364;DHT22;7781;49.690;6.472;2024-02-16T08:25:34;9.40;99.90
15364;DHT22;7781;49.690;6.472;2024-02-16T08:28:04;9.50;99.90
15364;DHT22;7781;49.690;6.472;2024-02-16T08:30:34;9.50;99.90
15364;DHT22;7781;49.690;6.472;2024-02-16T08:33:03;9.60;99.90
15364;DHT22;7781;49.690;6.472;2024-02-16T08:35:32;9.60;99.90
15364;DHT22;7781;49.690;6.472;2024-02-16T08:38:01;9.70;99.90
15364;DHT22;7781;49.690;6.472;2024-02-16T08:40:29;9.70;99.90
15364;DHT22;7781;49.690;6.472;2024-02-16T08:43:00;9.70;99.90
15364;DHT22;7781;49.690;6.472;2024-02-16T08:45:30;9.80;99.90
15364;DHT22;7781;49.690;6.472;2024-02-16T08:48:02;9.80;99.90
15364;DHT22;7781;49.690;6.472;2024-02-16T08:50:32;9.90;99.90
15364;DHT22;7781;49.690;6.472;2024-02-16T08:53:01;10.00;99.90
15364;DHT22;7781;49.690;6.472;2024-02-16T08:55:31;10.00;99.90
15364;DHT22;7781;49.690;6.472;2024-02-16T08:58:00;10.10;99.90
15364;DHT22;7781;49.690;6.472;2024-02-16T09:00:28;10.20;99.90
15364;DHT22;7781;49.690;6.472;2024-02-16T09:02:57;10.20;99.90
15364;DHT22;7781;49.690;6.472;2024-02-16T09:05:31;10.30;99.90
15364;DHT22;7781;49.690;6.472;2024-02-16T09:08:01;10.30;99.90
15364;DHT22;7781;49.690;6.472;2024-02-16T09:10:30;10.40;99.90
15364;DHT22;7781;49.690;6.472;2024-02-16T09:13:00;10.50;99.90
15364;DHT22;7781;49.690;6.472;2024-02-16T09:15:30;10.60;99.90
15364;DHT22;7781;49.690;6.472;2024-02-16T09:18:00;10.70;99.90
15364;DHT22;7781;49.690;6.472;2024-02-16T09:20:28;10.70;99.90
15364;DHT22;7781;49.690;6.472;2024-02-16T09:22:58;10.90;99.90
15364;DHT22;7781;49.690;6.472;2024-02-16T09:25:27;11.00;99.90
15364;DHT22;7781;49.690;6.472;2024-02-16T09:27:55;11.20;99.90
15364;DHT22;7781;49.690;6.472;2024-02-16T09:30:24;11.30;99.90
15364;DHT22;7781;49.690;6.472;2024-02-16T09:32:53;11.60;99.90
15364;DHT22;7781;49.690;6.472;2024-02-16T09:35:25;11.80;99.90
15364;DHT22;7781;49.690;6.472;2024-02-16T09:37:54;12.00;99.90
15364;DHT22;7781;49.690;6.472;2024-02-16T09:40:24;12.20;99.90
15364;DHT22;7781;49.690;6.472;2024-02-16T09:42:53;12.30;99.90
15364;DHT22;7781;49.690;6.472;2024-02-16T09:45:21;12.50;99.90
15364;DHT22;7781;49.690;6.472;2024-02-16T09:47:52;12.60;99.90
15364;DHT22;7781;49.690;6.472;2024-02-16T09:50:30;12.70;99.90
15364;DHT22;7781;49.690;6.472;2024-02-16T09:53:00;12.80;99.90
15364;DHT22;7781;49.690;6.472;2024-02-16T09:55:33;12.80;99.90
15364;DHT22;7781;49.690;6.472;2024-02-16T09:58:02;12.90;99.90
15364;DHT22;7781;49.690;6.472;2024-02-16T10:00:33;13.00;99.90
15364;DHT22;7781;49.690;6.472;2024-02-16T10:03:01;13.00;99.90
15364;DHT22;7781;49.690;6.472;2024-02-16T10:05:32;13.10;99.90
15364;DHT22;7781;49.690;6.472;2024-02-16T10:08:11;13.20;99.90
15364;DHT22;7781;49.690;6.472;2024-02-16T10:10:41;13.20;99.90
15364;DHT22;7781;49.690;6.472;2024-02-16T10:13:11;13.30;99.90
15364;DHT22;7781;49.690;6.472;2024-02-16T10:15:40;13.30;99.90
15364;DHT22;7781;49.690;6.472;2024-02-16T10:18:09;13.40;99.90
15364;DHT22;7781;49.690;6.472;2024-02-16T10:20:38;13.40;99.90
15364;DHT22;7781;49.690;6.472;2024-02-16T10:23:10;13.40;99.90
15364;DHT22;7781;49.690;6.472;2024-02-16T10:25:41;13.50;99.90
15364;DHT22;7781;49.690;6.472;2024-02-16T10:28:10;13.50;99.90
15364;DHT22;7781;49.690;6.472;2024-02-16T10:30:42;13.60;99.90
15364;DHT22;7781;49.690;6.472;2024-02-16T10:33:12;13.60;99.90
15364;DHT22;7781;49.690;6.472;2024-02-16T10:35:41;13.70;99.90
15364;DHT22;7781;49.690;6.472;2024-02-16T10:38:11;13.70;99.90
15364;DHT22;7781;49.690;6.472;2024-02-16T10:40:42;13.80;99.90
15364;DHT22;7781;49.690;6.472;2024-02-16T10:43:13;13.80;99.90
15364;DHT22;7781;49.690;6.472;2024-02-16T10:45:44;13.80;99.90
15364;DHT22;7781;49.690;6.472;2024-02-16T10:48:14;13.80;99.90
15364;DHT22;7781;49.690;6.472;2024-02-16T10:50:44;13.80;99.90
15364;DHT22;7781;49.690;6.472;2024-02-16T10:53:17;13.80;99.90
15364;DHT22;7781;49.690;6.472;2024-02-16T10:55:48;13.80;99.90
15364;DHT22;7781;49.690;6.472;2024-02-16T10:58:18;13.90;99.90
15364;DHT22;7781;49.690;6.472;2024-02-16T11:00:51;13.90;99.90
15364;DHT22;7781;49.690;6.472;2024-02-16T11:03:26;13.90;99.90
15364;DHT22;7781;49.690;6.472;2024-02-16T11:05:57;13.90;99.90
15364;DHT22;7781;49.690;6.472;2024-02-16T11:08:26;13.80;99.90
15364;DHT22;7781;49.690;6.472;2024-02-16T11:10:59;13.80;99.90
15364;DHT22;7781;49.690;6.472;2024-02-16T11:13:32;13.80;99.90
15364;DHT22;7781;49.690;6.472;2024-02-16T11:16:01;13.80;99.90
15364;DHT22;7781;49.690;6.472;2024-02-16T11:18:32;13.80;99.90
15364;DHT22;7781;49.690;6.472;2024-02-16T11:21:05;13.90;99.90
15364;DHT22;7781;49.690;6.472;2024-02-16T11:23:35;13.90;99.90
15364;DHT22;7781;49.690;6.472;2024-02-16T11:26:09;13.90;99.90
15364;DHT22;7781;49.690;6.472;2024-02-16T11:28:40;13.90;99.90
15364;DHT22;7781;49.690;6.472;2024-02-16T11:31:11;13.90;99.90
15364;DHT22;7781;49.690;6.472;2024-02-16T11:33:43;13.90;99.90
15364;DHT22;7781;49.690;6.472;2024-02-16T11:36:13;13.90;99.90
15364;DHT22;7781;49.690;6.472;2024-02-16T11:38:42;13.90;99.90
15364;DHT22;7781;49.690;6.472;2024-02-16T11:41:15;14.00;99.90
15364;DHT22;7781;49.690;6.472;2024-02-16T11:43:44;14.00;99.90
15364;DHT22;7781;49.690;6.472;2024-02-16T11:46:17;13.90;99.90
15364;DHT22;7781;49.690;6.472;2024-02-16T11:48:45;14.00;99.90
15364;DHT22;7781;49.690;6.472;2024-02-16T11:51:16;14.00;99.90
15364;DHT22;7781;49.690;6.472;2024-02-16T11:53:45;14.00;99.90
15364;DHT22;7781;49.690;6.472;2024-02-16T11:56:25;14.00;99.90
15364;DHT22;7781;49.690;6.472;2024-02-16T11:58:54;14.00;99.90
15364;DHT22;7781;49.690;6.472;2024-02-16T12:01:22;14.00;99.90
15364;DHT22;7781;49.690;6.472;2024-02-16T12:03:52;14.00;99.90
15364;DHT22;7781;49.690;6.472;2024-02-16T12:06:21;14.00;99.90
15364;DHT22;7781;49.690;6.472;2024-02-16T12:08:50;13.90;99.90
15364;DHT22;7781;49.690;6.472;2024-02-16T12:11:20;14.00;99.90
15364;DHT22;7781;49.690;6.472;2024-02-16T12:13:51;13.90;99.90
15364;DHT22;7781;49.690;6.472;2024-02-16T12:16:20;13.90;99.90
15364;DHT22;7781;49.690;6.472;2024-02-16T12:18:48;13.80;99.90
15364;DHT22;7781;49.690;6.472;2024-02-16T12:21:17;13.80;99.90
15364;DHT22;7781;49.690;6.472;2024-02-16T12:23:48;13.80;99.90
15364;DHT22;7781;49.690;6.472;2024-02-16T12:26:16;13.80;99.90
15364;DHT22;7781;49.690;6.472;2024-02-16T12:28:45;13.80;99.90
15364;DHT22;7781;49.690;6.472;2024-02-16T12:31:21;13.80;99.90
15364;DHT22;7781;49.690;6.472;2024-02-16T12:33:49;13.80;99.90
15364;DHT22;7781;49.690;6.472;2024-02-16T12:36:20;13.80;99.90
15364;DHT22;7781;49.690;6.472;2024-02-16T12:38:50;13.80;99.90
15364;DHT22;7781;49.690;6.472;2024-02-16T12:41:20;13.80;99.90
15364;DHT22;7781;49.690;6.472;2024-02-16T12:43:50;13.80;99.90
15364;DHT22;7781;49.690;6.472;2024-02-16T12:46:21;13.70;99.90
15364;DHT22;7781;49.690;6.472;2024-02-16T12:48:50;13.70;99.90
15364;DHT22;7781;49.690;6.472;2024-02-16T12:51:19;13.70;99.90
15364;DHT22;7781;49.690;6.472;2024-02-16T12:53:48;13.70;99.90
15364;DHT22;7781;49.690;6.472;2024-02-16T12:56:19;13.70;99.90
15364;DHT22;7781;49.690;6.472;2024-02-16T12:58:50;13.70;99.90
15364;DHT22;7781;49.690;6.472;2024-02-16T13:01:22;13.70;99.90
15364;DHT22;7781;49.690;6.472;2024-02-16T13:03:52;13.70;99.90
15364;DHT22;7781;49.690;6.472;2024-02-16T13:06:21;13.70;99.90
15364;DHT22;7781;49.690;6.472;2024-02-16T13:08:55;13.70;99.90
15364;DHT22;7781;49.690;6.472;2024-02-16T13:11:25;13.70;99.90
15364;DHT22;7781;49.690;6.472;2024-02-16T13:13:53;13.60;99.90
15364;DHT22;7781;49.690;6.472;2024-02-16T13:16:24;13.60;99.90
15364;DHT22;7781;49.690;6.472;2024-02-16T13:18:54;13.60;99.90
15364;DHT22;7781;49.690;6.472;2024-02-16T13:21:24;13.60;99.90
15364;DHT22;7781;49.690;6.472;2024-02-16T13:23:54;13.60;99.90
15364;DHT22;7781;49.690;6.472;2024-02-16T13:26:23;13.60;99.90
15364;DHT22;7781;49.690;6.472;2024-02-16T13:28:52;13.60;99.90
15364;DHT22;7781;49.690;6.472;2024-02-16T13:31:24;13.70;99.90
15364;DHT22;7781;49.690;6.472;2024-02-16T13:33:54;13.70;99.90
15364;DHT22;7781;49.690;6.472;2024-02-16T13:36:22;13.70;99.90
15364;DHT22;7781;49.690;6.472;2024-02-16T13:38:51;13.60;99.90
15364;DHT22;7781;49.690;6.472;2024-02-16T13:41:21;13.60;99.90
15364;DHT22;7781;49.690;6.472;2024-02-16T13:43:50;13.60;99.90
15364;DHT22;7781;49.690;6.472;2024-02-16T13:46:20;13.60;99.90
15364;DHT22;7781;49.690;6.472;2024-02-16T13:48:53;13.60;99.90
15364;DHT22;7781;49.690;6.472;2024-02-16T13:51:23;13.50;99.90
15364;DHT22;7781;49.690;6.472;2024-02-16T13:53:52;13.40;99.90
15364;DHT22;7781;49.690;6.472;2024-02-16T13:56:20;13.40;99.90
15364;DHT22;7781;49.690;6.472;2024-02-16T13:58:50;13.40;99.90
15364;DHT22;7781;49.690;6.472;2024-02-16T14:01:20;13.30;99.90
15364;DHT22;7781;49.690;6.472;2024-02-16T14:03:50;13.30;99.90
15364;DHT22;7781;49.690;6.472;2024-02-16T14:06:22;13.30;99.90
15364;DHT22;7781;49.690;6.472;2024-02-16T14:08:51;13.30;99.90
15364;DHT22;7781;49.690;6.472;2024-02-16T14:11:20;13.30;99.90
15364;DHT22;7781;49.690;6.472;2024-02-16T14:13:49;13.30;99.90
15364;DHT22;7781;49.690;6.472;2024-02-16T14:16:18;13.30;99.90
15364;DHT22;7781;49.690;6.472;2024-02-16T14:18:47;13.30;99.90
15364;DHT22;7781;49.690;6.472;2024-02-16T14:21:19;13.30;99.90
15364;DHT22;7781;49.690;6.472;2024-02-16T14:23:51;13.30;99.90
15364;DHT22;7781;49.690;6.472;2024-02-16T14:26:20;13.30;99.90
15364;DHT22;7781;49.690;6.472;2024-02-16T14:28:48;13.30;99.90
15364;DHT22;7781;49.690;6.472;2024-02-16T14:31:17;13.30;99.90
15364;DHT22;7781;49.690;6.472;2024-02-16T14:33:47;13.30;99.90
15364;DHT22;7781;49.690;6.472;2024-02-16T14:36:18;13.30;99.90
15364;DHT22;7781;49.690;6.472;2024-02-16T14:38:46;13.30;99.90
15364;DHT22;7781;49.690;6.472;2024-02-16T14:41:20;13.30;99.90
15364;DHT22;7781;49.690;6.472;2024-02-16T14:43:51;13.30;99.90
15364;DHT22;7781;49.690;6.472;2024-02-16T14:46:20;13.30;99.90
15364;DHT22;7781;49.690;6.472;2024-02-16T14:48:53;13.30;99.90
15364;DHT22;7781;49.690;6.472;2024-02-16T14:51:23;13.30;99.90
15364;DHT22;7781;49.690;6.472;2024-02-16T14:53:51;13.30;99.90
15364;DHT22;7781;49.690;6.472;2024-02-16T14:56:21;13.30;99.90
15364;DHT22;7781;49.690;6.472;2024-02-16T14:58:50;13.20;99.90
15364;DHT22;7781;49.690;6.472;2024-02-16T15:01:19;13.20;99.90
15364;DHT22;7781;49.690;6.472;2024-02-16T15:03:48;13.30;99.90
15364;DHT22;7781;49.690;6.472;2024-02-16T15:06:17;13.30;99.90
15364;DHT22;7781;49.690;6.472;2024-02-16T15:08:46;13.30;99.90
15364;DHT22;7781;49.690;6.472;2024-02-16T15:11:14;13.20;99.90
15364;DHT22;7781;49.690;6.472;2024-02-16T15:13:46;13.20;99.90
15364;DHT22;7781;49.690;6.472;2024-02-16T15:16:16;13.10;99.90
15364;DHT22;7781;49.690;6.472;2024-02-16T15:18:45;13.10;99.90
15364;DHT22;7781;49.690;6.472;2024-02-16T15:21:13;13.10;99.90
15364;DHT22;7781;49.690;6.472;2024-02-16T15:23:43;13.10;99.90
15364;DHT22;7781;49.690;6.472;2024-02-16T15:26:13;13.10;99.90
15364;DHT22;7781;49.690;6.472;2024-02-16T15:28:42;13.10;99.90
15364;DHT22;7781;49.690;6.472;2024-02-16T15:31:11;13.10;99.90
15364;DHT22;7781;49.690;6.472;2024-02-16T15:33:40;13.10;99.90
15364;DHT22;7781;49.690;6.472;2024-02-16T15:36:09;13.10;99.90
15364;DHT22;7781;49.690;6.472;2024-02-16T15:38:39;13.10;99.90
15364;DHT22;7781;49.690;6.472;2024-02-16T15:41:07;13.10;99.90
15364;DHT22;7781;49.690;6.472;2024-02-16T15:43:36;13.00;99.90
15364;DHT22;7781;49.690;6.472;2024-02-16T15:46:05;13.00;99.90
15364;DHT22;7781;49.690;6.472;2024-02-16T15:48:36;13.00;99.90
15364;DHT22;7781;49.690;6.472;2024-02-16T15:51:05;13.00;99.90
15364;DHT22;7781;49.690;6.472;2024-02-16T15:53:36;13.00;99.90
15364;DHT22;7781;49.690;6.472;2024-02-16T15:56:07;13.00;99.90
15364;DHT22;7781;49.690;6.472;2024-02-16T15:58:36;13.00;99.90
15364;DHT22;7781;49.690;6.472;2024-02-16T16:01:04;12.90;99.90
15364;DHT22;7781;49.690;6.472;2024-02-16T16:03:33;12.90;99.90
15364;DHT22;7781;49.690;6.472;2024-02-16T16:06:04;12.90;99.90
15364;DHT22;7781;49.690;6.472;2024-02-16T16:08:33;12.80;99.90
15364;DHT22;7781;49.690;6.472;2024-02-16T16:11:02;12.80;99.90